KEFD/EFD METAR and TAF weather

Enter ICAO airport designator
Station Type Date Time Source
KEFD METAR 2019/10/16 18:50 UTC NOAA

KEFD 161850Z 33013KT 5SM BR OVC007 19/17 A3002


Station Type Date Time Source
KEFD Decoded METAR 2019/10/16 18:50 UTC NOAA

Houston / Ellington, TX, United States (KEFD) 29-36N 095-10W
Oct 16, 2019 - 02:50 PM EDT / 2019.10.16 1850 UTC
Wind: from the NNW (330 degrees) at 15 MPH (13 KT):0
Visibility: 5 mile(s):0
Sky conditions: overcast
Weather: mist
Temperature: 66 F (19 C)
Dew Point: 62 F (17 C)
Relative Humidity: 88%
Pressure (altimeter): 30.02 in. Hg (1016 hPa)
ob: KEFD 161850Z 33013KT 5SM BR OVC007 19/17 A3002
cycle: 19

Station Type Date Time Source
KEFD TAF 2019/10/16 18:27 UTC NOAA

TAF
AMD KEFD 161813Z 1618/1718 02012KT 9999 BKN010 QNH2990INS
BECMG 1621/1622 05009KT 9999 SCT040 QNH2999INS
BECMG 1701/1702 VRB06KT 9999 SKC QNH3003INS TX24/1618Z TN14/1710Z

Example: see airport list